createdAt,value
2022-12-25T00:01:48.236Z,97.06
2022-12-25T00:04:15.046Z,98.15
2022-12-25T00:06:41.650Z,98.22
2022-12-25T00:09:08.171Z,98.65
2022-12-25T00:11:34.944Z,98.76
2022-12-25T00:14:01.510Z,98.12
2022-12-25T00:16:28.193Z,97.60
2022-12-25T00:18:56.343Z,97.75
2022-12-25T00:21:22.869Z,97.97
2022-12-25T00:23:54.553Z,97.78
2022-12-25T00:26:21.138Z,98.26
2022-12-25T00:28:47.701Z,98.50
2022-12-25T00:31:16.388Z,97.86
2022-12-25T00:33:45.189Z,97.68
2022-12-25T00:36:12.672Z,97.82
2022-12-25T00:38:40.474Z,97.75
2022-12-25T00:41:15.267Z,97.99
2022-12-25T00:43:42.289Z,97.26
2022-12-25T00:46:10.281Z,97.93
2022-12-25T00:48:37.183Z,98.48
2022-12-25T00:51:06.755Z,98.51
2022-12-25T00:53:33.570Z,97.88
2022-12-25T00:56:03.235Z,98.20
2022-12-25T00:58:31.360Z,97.26
2022-12-25T01:00:58.234Z,97.50
2022-12-25T01:03:25.396Z,96.90
2022-12-25T01:06:00.562Z,96.21
2022-12-25T01:08:27.847Z,96.45
2022-12-25T01:10:59.925Z,96.61
2022-12-25T01:13:27.544Z,96.58
2022-12-25T01:15:54.622Z,96.55
2022-12-25T01:18:22.626Z,97.06
2022-12-25T01:20:49.196Z,96.33
2022-12-25T01:23:16.144Z,96.70
2022-12-25T01:25:43.046Z,95.91
2022-12-25T01:28:09.759Z,95.90
2022-12-25T01:30:36.272Z,96.79
2022-12-25T01:33:02.895Z,97.04
2022-12-25T01:35:29.451Z,98.35
2022-12-25T01:37:56.116Z,98.57
2022-12-25T01:40:22.754Z,98.32
2022-12-25T01:42:49.409Z,97.96
2022-12-25T01:45:44.033Z,98.02
2022-12-25T01:48:15.031Z,97.96
2022-12-25T01:50:44.304Z,97.67
2022-12-25T01:53:10.943Z,97.76
2022-12-25T01:55:38.510Z,97.39
2022-12-25T01:58:05.165Z,96.88
2022-12-25T02:00:31.825Z,97.60
2022-12-25T02:02:58.860Z,98.92
2022-12-25T02:05:31.504Z,100.00
2022-12-25T02:08:00.976Z,100.00
2022-12-25T02:10:28.005Z,100.00
2022-12-25T02:12:54.624Z,100.00
2022-12-25T02:15:23.408Z,99.69
2022-12-25T02:17:57.999Z,99.08
2022-12-25T02:20:28.483Z,99.12
2022-12-25T02:23:07.290Z,99.53
2022-12-25T02:25:41.047Z,99.11
2022-12-25T02:28:50.231Z,99.09
2022-12-25T02:31:20.796Z,98.77
2022-12-25T02:34:05.348Z,99.91
2022-12-25T02:36:46.413Z,99.45
2022-12-25T02:39:45.763Z,99.14
2022-12-25T02:42:19.201Z,99.26
2022-12-25T02:45:04.761Z,99.04
2022-12-25T02:48:01.408Z,98.87
2022-12-25T02:50:46.291Z,98.78
2022-12-25T02:53:31.383Z,98.24
2022-12-25T02:56:17.524Z,97.68
2022-12-25T02:59:03.618Z,97.86
2022-12-25T03:01:49.845Z,97.99
2022-12-25T03:04:37.872Z,98.74
2022-12-25T03:07:16.733Z,98.25
2022-12-25T03:10:05.719Z,97.59
2022-12-25T03:12:40.500Z,97.94
2022-12-25T03:15:28.024Z,98.12
2022-12-25T03:17:56.400Z,98.83
2022-12-25T03:20:41.677Z,99.59
2022-12-25T03:23:26.954Z,99.02
2022-12-25T03:26:11.914Z,99.73
2022-12-25T03:28:38.554Z,99.82
2022-12-25T03:31:17.051Z,100.00
2022-12-25T03:34:24.525Z,99.68
2022-12-25T03:37:28.768Z,99.24
2022-12-25T03:40:32.245Z,99.11
2022-12-25T03:43:53.756Z,98.68
2022-12-25T03:46:39.892Z,99.02
2022-12-25T03:49:35.737Z,99.54
2022-12-25T03:52:21.405Z,99.16
2022-12-25T03:55:07.019Z,99.50
2022-12-25T03:57:53.694Z,98.97
2022-12-25T04:00:38.869Z,99.81
2022-12-25T04:03:24.123Z,100.00
2022-12-25T04:06:09.392Z,100.00
2022-12-25T04:08:54.584Z,98.88
2022-12-25T04:11:39.728Z,99.71
2022-12-25T04:14:24.851Z,99.86
2022-12-25T04:17:10.003Z,99.01
2022-12-25T04:20:02.647Z,98.24
2022-12-25T04:22:47.679Z,98.33
2022-12-25T04:25:32.751Z,97.74
2022-12-25T04:28:22.083Z,98.54
2022-12-25T04:31:07.304Z,98.03
2022-12-25T04:33:52.508Z,97.69
2022-12-25T04:36:19.846Z,98.29
2022-12-25T04:38:46.449Z,98.23
2022-12-25T04:41:14.160Z,98.13
2022-12-25T04:43:40.642Z,99.04
2022-12-25T04:46:07.271Z,98.74
2022-12-25T04:48:35.585Z,98.92
2022-12-25T04:51:19.835Z,98.85
2022-12-25T04:53:47.647Z,99.17
2022-12-25T04:56:14.739Z,100.00
2022-12-25T04:58:41.803Z,100.00
2022-12-25T05:01:08.724Z,100.00
2022-12-25T05:03:36.002Z,100.00
2022-12-25T05:06:03.946Z,100.00
2022-12-25T05:08:31.813Z,100.00
2022-12-25T05:10:58.487Z,100.00
2022-12-25T05:13:24.990Z,100.00
2022-12-25T05:15:51.773Z,100.00
2022-12-25T05:18:18.404Z,100.00
2022-12-25T05:20:52.598Z,100.00
2022-12-25T05:23:19.167Z,100.00
2022-12-25T05:25:45.792Z,100.00
2022-12-25T05:28:12.443Z,100.00
2022-12-25T05:30:39.019Z,100.00
2022-12-25T05:33:05.590Z,100.00
2022-12-25T05:35:32.126Z,100.00
2022-12-25T05:37:58.688Z,100.00
2022-12-25T05:40:25.235Z,100.00
2022-12-25T05:42:51.813Z,100.00
2022-12-25T05:45:18.457Z,100.00
2022-12-25T05:47:44.949Z,100.00
2022-12-25T05:50:11.511Z,100.00
2022-12-25T05:52:38.305Z,100.00
2022-12-25T05:55:05.252Z,100.00
2022-12-25T05:57:32.252Z,100.00
2022-12-25T05:59:59.081Z,100.00
2022-12-25T06:02:26.187Z,100.00
2022-12-25T06:04:53.025Z,100.00
2022-12-25T06:07:19.562Z,100.00
2022-12-25T06:09:46.173Z,100.00
2022-12-25T06:12:12.886Z,100.00
2022-12-25T06:14:39.413Z,100.00
2022-12-25T06:17:05.975Z,100.00
2022-12-25T06:19:32.609Z,100.00
2022-12-25T06:21:59.164Z,100.00
2022-12-25T06:24:25.954Z,100.00
2022-12-25T06:26:52.500Z,100.00
2022-12-25T06:29:19.285Z,100.00
2022-12-25T06:31:45.841Z,100.00
2022-12-25T06:34:16.414Z,100.00
2022-12-25T06:36:43.432Z,100.00
2022-12-25T06:39:10.181Z,100.00
2022-12-25T06:41:36.850Z,100.00
2022-12-25T06:44:03.622Z,100.00
2022-12-25T06:46:30.648Z,100.00
2022-12-25T06:48:58.495Z,100.00
2022-12-25T06:51:27.680Z,100.00
2022-12-25T06:53:55.176Z,100.00
2022-12-25T06:56:26.957Z,100.00
2022-12-25T06:58:58.827Z,100.00
2022-12-25T07:01:30.149Z,100.00
2022-12-25T07:03:59.019Z,100.00
2022-12-25T07:06:25.972Z,100.00
2022-12-25T07:08:52.838Z,100.00
2022-12-25T07:11:19.873Z,100.00
2022-12-25T07:13:46.729Z,100.00
2022-12-25T07:16:13.969Z,100.00
2022-12-25T07:18:41.439Z,100.00
2022-12-25T07:21:19.958Z,100.00
2022-12-25T07:23:48.009Z,100.00
2022-12-25T07:26:15.163Z,100.00
2022-12-25T07:28:41.710Z,100.00
2022-12-25T07:31:11.794Z,100.00
2022-12-25T07:33:38.448Z,100.00
2022-12-25T07:36:05.666Z,100.00
2022-12-25T07:38:32.596Z,100.00
2022-12-25T07:40:59.269Z,100.00
2022-12-25T07:43:26.097Z,100.00
2022-12-25T07:45:57.759Z,100.00
2022-12-25T07:48:25.971Z,100.00
2022-12-25T07:50:59.561Z,100.00
2022-12-25T07:53:26.775Z,100.00
2022-12-25T07:56:01.208Z,100.00
2022-12-25T07:58:28.807Z,100.00
2022-12-25T08:00:55.779Z,100.00
2022-12-25T08:03:22.632Z,100.00
2022-12-25T08:05:49.346Z,100.00
2022-12-25T08:08:16.009Z,100.00
2022-12-25T08:10:47.481Z,100.00
2022-12-25T08:13:14.856Z,100.00
2022-12-25T08:15:42.030Z,100.00
2022-12-25T08:18:08.560Z,100.00
2022-12-25T08:20:35.425Z,100.00
2022-12-25T08:23:02.129Z,100.00
2022-12-25T08:25:28.702Z,100.00
2022-12-25T08:27:55.203Z,100.00
2022-12-25T08:30:21.717Z,100.00
2022-12-25T08:32:48.262Z,100.00
2022-12-25T08:35:14.910Z,100.00
2022-12-25T08:37:41.689Z,100.00
2022-12-25T08:40:08.865Z,100.00
2022-12-25T08:42:35.366Z,100.00
2022-12-25T08:45:01.853Z,100.00
2022-12-25T08:47:28.336Z,100.00
2022-12-25T08:49:54.851Z,100.00
2022-12-25T08:52:21.684Z,100.00
2022-12-25T08:54:48.254Z,100.00
2022-12-25T08:57:14.888Z,100.00
2022-12-25T08:59:41.560Z,100.00
2022-12-25T09:02:10.377Z,100.00
2022-12-25T09:04:37.142Z,100.00
2022-12-25T09:07:03.663Z,100.00
2022-12-25T09:09:30.294Z,100.00
2022-12-25T09:11:56.800Z,100.00
2022-12-25T09:14:23.236Z,100.00
2022-12-25T09:16:51.151Z,100.00
2022-12-25T09:19:17.672Z,100.00
2022-12-25T09:21:44.128Z,100.00
2022-12-25T09:24:10.604Z,100.00
2022-12-25T09:26:38.561Z,100.00
2022-12-25T09:29:04.991Z,100.00
2022-12-25T09:31:31.535Z,100.00
2022-12-25T09:33:58.123Z,100.00
2022-12-25T09:36:25.200Z,100.00
2022-12-25T09:38:52.753Z,100.00
2022-12-25T09:41:38.778Z,100.00
2022-12-25T09:44:11.680Z,100.00
2022-12-25T09:46:45.482Z,100.00
2022-12-25T09:50:05.597Z,100.00
2022-12-25T09:52:39.287Z,100.00
2022-12-25T09:55:19.643Z,100.00
2022-12-25T09:57:50.788Z,100.00
2022-12-25T10:00:20.199Z,100.00
2022-12-25T10:03:03.166Z,100.00
2022-12-25T10:06:00.318Z,100.00
2022-12-25T10:08:26.623Z,100.00
2022-12-25T10:11:18.284Z,100.00
2022-12-25T10:13:54.935Z,100.00
2022-12-25T10:16:53.620Z,100.00
2022-12-25T10:19:43.638Z,100.00
2022-12-25T10:22:22.194Z,100.00
2022-12-25T10:24:53.196Z,100.00
2022-12-25T10:27:27.041Z,100.00
2022-12-25T10:29:54.828Z,100.00
2022-12-25T10:32:22.143Z,100.00
2022-12-25T10:34:49.569Z,100.00
2022-12-25T10:37:16.400Z,100.00
2022-12-25T10:39:46.600Z,100.00
2022-12-25T10:42:16.533Z,100.00
2022-12-25T10:44:54.636Z,100.00
2022-12-25T10:47:26.315Z,100.00
2022-12-25T10:49:53.046Z,100.00
2022-12-25T10:52:25.014Z,100.00
2022-12-25T10:54:51.541Z,100.00
2022-12-25T10:57:20.458Z,100.00
2022-12-25T10:59:48.107Z,100.00
2022-12-25T11:02:16.229Z,100.00
2022-12-25T11:04:43.070Z,100.00
2022-12-25T11:07:18.572Z,100.00
2022-12-25T11:09:59.275Z,100.00
2022-12-25T11:12:37.520Z,100.00
2022-12-25T11:15:07.384Z,100.00
2022-12-25T11:17:36.034Z,100.00
2022-12-25T11:20:02.643Z,100.00
2022-12-25T11:22:29.413Z,100.00
2022-12-25T11:24:55.939Z,100.00
2022-12-25T11:27:28.066Z,100.00
2022-12-25T11:30:05.074Z,100.00
2022-12-25T11:32:34.928Z,100.00
2022-12-25T11:35:01.826Z,100.00
2022-12-25T11:37:33.605Z,100.00
2022-12-25T11:40:00.571Z,100.00
2022-12-25T11:42:32.318Z,100.00
2022-12-25T11:45:10.465Z,100.00
2022-12-25T11:47:54.032Z,100.00
2022-12-25T11:50:34.440Z,100.00
2022-12-25T11:53:04.460Z,100.00
2022-12-25T11:55:42.800Z,100.00
2022-12-25T11:58:23.567Z,100.00
2022-12-25T12:00:51.600Z,100.00
2022-12-25T12:03:25.093Z,100.00
2022-12-25T12:05:53.774Z,100.00
2022-12-25T12:08:20.249Z,100.00
2022-12-25T12:11:15.799Z,100.00
2022-12-25T12:14:03.804Z,100.00
2022-12-25T12:16:30.512Z,100.00
2022-12-25T12:18:57.271Z,100.00
2022-12-25T12:21:26.570Z,100.00
2022-12-25T12:24:06.085Z,100.00
2022-12-25T12:26:40.776Z,100.00
2022-12-25T12:29:18.805Z,100.00
2022-12-25T12:31:47.577Z,100.00
2022-12-25T12:34:23.223Z,100.00
2022-12-25T12:36:51.247Z,100.00
2022-12-25T12:39:25.551Z,100.00
2022-12-25T12:41:52.542Z,100.00
2022-12-25T12:44:21.107Z,100.00
2022-12-25T12:46:56.147Z,100.00
2022-12-25T12:49:32.246Z,100.00
2022-12-25T12:52:23.926Z,100.00
2022-12-25T12:55:01.755Z,100.00
2022-12-25T12:57:32.710Z,100.00
2022-12-25T13:00:08.594Z,100.00
2022-12-25T13:02:57.429Z,100.00
2022-12-25T13:05:43.414Z,100.00
2022-12-25T13:08:40.164Z,100.00
2022-12-25T13:11:25.216Z,100.00
2022-12-25T13:13:54.656Z,100.00
2022-12-25T13:16:27.686Z,100.00
2022-12-25T13:18:55.535Z,100.00
2022-12-25T13:21:29.332Z,100.00
2022-12-25T13:24:00.484Z,100.00
2022-12-25T13:26:27.476Z,100.00
2022-12-25T13:28:56.027Z,100.00
2022-12-25T13:31:25.134Z,100.00
2022-12-25T13:34:03.749Z,100.00
2022-12-25T13:36:36.869Z,100.00
2022-12-25T13:39:04.038Z,100.00
2022-12-25T13:41:59.118Z,100.00
2022-12-25T13:44:27.880Z,100.00
2022-12-25T13:46:54.364Z,100.00
2022-12-25T13:49:23.551Z,100.00
2022-12-25T13:51:51.287Z,100.00
2022-12-25T13:54:18.804Z,100.00
2022-12-25T13:56:48.102Z,100.00
2022-12-25T13:59:17.329Z,100.00
2022-12-25T14:01:44.201Z,100.00
2022-12-25T14:04:18.963Z,100.00
2022-12-25T14:06:45.683Z,100.00
2022-12-25T14:09:13.224Z,100.00
2022-12-25T14:11:41.681Z,100.00
2022-12-25T14:14:23.654Z,100.00
2022-12-25T14:16:53.260Z,100.00
2022-12-25T14:19:29.111Z,100.00
2022-12-25T14:22:23.149Z,100.00
2022-12-25T14:24:50.758Z,100.00
2022-12-25T14:27:20.892Z,100.00
2022-12-25T14:29:49.029Z,100.00
2022-12-25T14:32:22.770Z,100.00
2022-12-25T14:34:53.164Z,100.00
2022-12-25T14:37:22.151Z,100.00
2022-12-25T14:39:59.783Z,100.00
2022-12-25T14:42:29.471Z,100.00
2022-12-25T14:45:20.998Z,100.00
2022-12-25T14:47:55.199Z,100.00
2022-12-25T14:50:26.256Z,100.00
2022-12-25T14:52:53.229Z,100.00
2022-12-25T14:55:22.347Z,100.00
2022-12-25T14:57:52.356Z,100.00
2022-12-25T15:00:22.149Z,100.00
2022-12-25T15:02:49.192Z,100.00
2022-12-25T15:05:42.271Z,100.00
2022-12-25T15:08:08.711Z,100.00
2022-12-25T15:13:22.830Z,100.00
2022-12-25T15:16:12.442Z,100.00
2022-12-25T15:18:42.391Z,100.00
2022-12-25T15:21:15.755Z,100.00
2022-12-25T15:23:42.395Z,100.00
2022-12-25T15:26:13.528Z,100.00
2022-12-25T15:28:40.600Z,100.00
2022-12-25T15:31:19.769Z,100.00
2022-12-25T15:33:46.471Z,100.00
2022-12-25T15:36:12.944Z,100.00
2022-12-25T15:38:39.635Z,100.00
2022-12-25T15:41:33.425Z,100.00
2022-12-25T15:44:00.168Z,100.00
2022-12-25T15:46:26.976Z,100.00
2022-12-25T15:48:53.643Z,100.00
2022-12-25T15:51:21.152Z,100.00
2022-12-25T15:53:49.754Z,100.00
2022-12-25T15:56:17.362Z,100.00
2022-12-25T15:58:43.911Z,100.00
2022-12-25T16:01:18.299Z,100.00
2022-12-25T16:03:45.436Z,100.00
2022-12-25T16:06:13.255Z,100.00
2022-12-25T16:08:41.312Z,100.00
2022-12-25T16:11:07.991Z,100.00
2022-12-25T16:13:34.746Z,100.00
2022-12-25T16:16:01.920Z,100.00
2022-12-25T16:18:29.974Z,100.00
2022-12-25T16:20:57.239Z,100.00
2022-12-25T16:23:24.010Z,100.00
2022-12-25T16:25:50.549Z,100.00
2022-12-25T16:28:17.085Z,100.00
2022-12-25T16:30:43.633Z,100.00
2022-12-25T16:33:10.924Z,100.00
2022-12-25T16:35:37.333Z,100.00
2022-12-25T16:38:04.010Z,100.00
2022-12-25T16:40:31.327Z,100.00
2022-12-25T16:42:57.728Z,100.00
2022-12-25T16:45:24.158Z,100.00
2022-12-25T16:47:50.612Z,100.00
2022-12-25T16:50:17.090Z,100.00
2022-12-25T16:52:43.490Z,100.00
2022-12-25T16:55:11.227Z,100.00
2022-12-25T16:57:37.645Z,100.00
2022-12-25T17:00:04.763Z,100.00
2022-12-25T17:02:31.319Z,100.00
2022-12-25T17:04:57.851Z,100.00
2022-12-25T17:07:24.248Z,100.00
2022-12-25T17:09:50.689Z,100.00
2022-12-25T17:12:17.337Z,100.00
2022-12-25T17:14:43.774Z,100.00
2022-12-25T17:17:10.195Z,100.00
2022-12-25T17:19:36.622Z,100.00
2022-12-25T17:22:03.096Z,100.00
2022-12-25T17:24:29.901Z,100.00
2022-12-25T17:26:56.310Z,100.00
2022-12-25T17:29:23.151Z,100.00
2022-12-25T17:31:50.084Z,100.00
2022-12-25T17:34:16.606Z,100.00
2022-12-25T17:36:43.031Z,100.00
2022-12-25T17:39:09.985Z,100.00
2022-12-25T17:41:36.424Z,100.00
2022-12-25T17:44:02.836Z,100.00
2022-12-25T17:46:30.064Z,100.00
2022-12-25T17:48:58.319Z,100.00
2022-12-25T17:51:25.845Z,100.00
2022-12-25T17:53:54.250Z,100.00
2022-12-25T17:56:22.467Z,100.00
2022-12-25T17:58:53.617Z,100.00
2022-12-25T18:01:20.691Z,100.00
2022-12-25T18:03:47.614Z,100.00
2022-12-25T18:06:17.161Z,100.00
2022-12-25T18:08:44.917Z,100.00
2022-12-25T18:11:15.291Z,100.00
2022-12-25T18:13:44.748Z,100.00
2022-12-25T18:16:12.626Z,100.00
2022-12-25T18:18:40.468Z,100.00
2022-12-25T18:21:07.415Z,100.00
2022-12-25T18:23:35.791Z,100.00
2022-12-25T18:26:03.909Z,100.00
2022-12-25T18:28:30.746Z,100.00
2022-12-25T18:30:58.794Z,100.00
2022-12-25T18:33:26.708Z,100.00
2022-12-25T18:35:58.608Z,100.00
2022-12-25T18:38:25.033Z,100.00
2022-12-25T18:40:51.677Z,100.00
2022-12-25T18:43:18.129Z,100.00
2022-12-25T18:45:44.668Z,100.00
2022-12-25T18:48:11.300Z,100.00
2022-12-25T18:50:40.060Z,100.00
2022-12-25T18:53:07.024Z,100.00
2022-12-25T18:55:33.461Z,100.00
2022-12-25T18:57:59.908Z,100.00
2022-12-25T19:00:27.951Z,100.00
2022-12-25T19:02:58.890Z,100.00
2022-12-25T19:05:26.077Z,100.00
2022-12-25T19:07:52.501Z,100.00
2022-12-25T19:10:18.934Z,100.00
2022-12-25T19:12:45.387Z,100.00
2022-12-25T19:15:12.018Z,100.00
2022-12-25T19:17:38.430Z,100.00
2022-12-25T19:20:06.120Z,100.00
2022-12-25T19:22:32.670Z,100.00
2022-12-25T19:24:59.145Z,100.00
2022-12-25T19:27:25.556Z,100.00
2022-12-25T19:29:51.980Z,100.00
2022-12-25T19:32:18.408Z,100.00
2022-12-25T19:34:44.895Z,100.00
2022-12-25T19:37:11.363Z,100.00
2022-12-25T19:39:37.788Z,100.00
2022-12-25T19:42:04.201Z,100.00
2022-12-25T19:44:30.629Z,100.00
2022-12-25T19:46:57.062Z,100.00
2022-12-25T19:49:23.463Z,100.00
2022-12-25T19:51:49.866Z,100.00
2022-12-25T19:54:18.809Z,100.00
2022-12-25T19:56:45.310Z,100.00
2022-12-25T19:59:12.600Z,100.00
2022-12-25T20:01:39.262Z,100.00
2022-12-25T20:04:08.654Z,100.00
2022-12-25T20:06:36.681Z,100.00
2022-12-25T20:09:06.212Z,100.00
2022-12-25T20:11:33.939Z,100.00
2022-12-25T20:14:00.363Z,100.00
2022-12-25T20:16:26.861Z,100.00
2022-12-25T20:18:53.642Z,100.00
2022-12-25T20:21:21.763Z,100.00
2022-12-25T20:23:50.217Z,100.00
2022-12-25T20:26:18.608Z,100.00
2022-12-25T20:28:45.096Z,100.00
2022-12-25T20:31:18.175Z,100.00
2022-12-25T20:33:45.031Z,100.00
2022-12-25T20:36:12.721Z,100.00
2022-12-25T20:38:39.179Z,100.00
2022-12-25T20:41:29.460Z,100.00
2022-12-25T20:43:56.705Z,100.00
2022-12-25T20:46:23.936Z,100.00
2022-12-25T20:48:51.773Z,100.00
2022-12-25T20:51:21.126Z,100.00
2022-12-25T20:53:48.032Z,100.00
2022-12-25T20:56:17.026Z,100.00
2022-12-25T20:58:43.871Z,100.00
2022-12-25T21:01:12.876Z,100.00
2022-12-25T21:03:40.403Z,100.00
2022-12-25T21:06:07.461Z,100.00
2022-12-25T21:08:34.333Z,100.00
2022-12-25T21:11:01.318Z,100.00
2022-12-25T21:13:29.672Z,100.00
2022-12-25T21:15:57.024Z,100.00
2022-12-25T21:18:24.409Z,100.00
2022-12-25T21:20:52.857Z,100.00
2022-12-25T21:23:20.130Z,100.00
2022-12-25T21:25:47.359Z,100.00
2022-12-25T21:28:13.764Z,100.00
2022-12-25T21:30:40.508Z,100.00
2022-12-25T21:33:28.095Z,100.00
2022-12-25T21:35:54.496Z,100.00
2022-12-25T21:38:20.998Z,100.00
2022-12-25T21:40:47.406Z,100.00
2022-12-25T21:43:14.216Z,100.00
2022-12-25T21:45:41.802Z,100.00
2022-12-25T21:48:09.248Z,100.00
2022-12-25T21:50:55.819Z,100.00
2022-12-25T21:53:22.239Z,100.00
2022-12-25T21:55:59.145Z,100.00
2022-12-25T21:58:25.575Z,100.00
2022-12-25T22:00:52.149Z,100.00
2022-12-25T22:03:18.790Z,100.00
2022-12-25T22:06:03.909Z,100.00
2022-12-25T22:08:33.601Z,100.00
2022-12-25T22:11:03.129Z,100.00
2022-12-25T22:13:48.198Z,100.00
2022-12-25T22:16:33.129Z,100.00
2022-12-25T22:19:18.176Z,100.00
2022-12-25T22:21:44.602Z,100.00
2022-12-25T22:24:11.022Z,100.00
2022-12-25T22:26:37.424Z,100.00
2022-12-25T22:29:03.858Z,100.00
2022-12-25T22:31:31.334Z,100.00
2022-12-25T22:33:57.835Z,100.00
2022-12-25T22:36:24.261Z,100.00
2022-12-25T22:38:50.682Z,100.00
2022-12-25T22:41:17.079Z,100.00
2022-12-25T22:44:15.815Z,100.00
2022-12-25T22:46:29.895Z,100.00
2022-12-25T22:48:56.873Z,100.00
2022-12-25T22:51:23.316Z,100.00
2022-12-25T22:53:50.048Z,100.00
2022-12-25T22:56:16.753Z,100.00
2022-12-25T22:58:43.263Z,100.00
2022-12-25T23:01:10.625Z,100.00
2022-12-25T23:03:37.414Z,100.00
2022-12-25T23:06:03.941Z,100.00
2022-12-25T23:08:30.414Z,100.00
2022-12-25T23:11:03.113Z,100.00
2022-12-25T23:13:48.325Z,100.00
2022-12-25T23:16:15.945Z,100.00
2022-12-25T23:19:01.048Z,100.00
2022-12-25T23:21:46.572Z,100.00
2022-12-25T23:24:31.602Z,100.00
2022-12-25T23:26:58.347Z,100.00
2022-12-25T23:29:36.777Z,100.00
2022-12-25T23:32:15.422Z,100.00
2022-12-25T23:34:43.402Z,100.00
2022-12-25T23:37:10.342Z,100.00
2022-12-25T23:39:36.858Z,100.00
2022-12-25T23:42:03.311Z,100.00
2022-12-25T23:44:29.834Z,100.00
2022-12-25T23:46:56.727Z,100.00
2022-12-25T23:49:24.085Z,100.00
2022-12-25T23:51:50.816Z,100.00
2022-12-25T23:54:19.747Z,100.00
2022-12-25T23:56:46.498Z,100.00
2022-12-25T23:59:13.435Z,100.00
